Time;durP1;ratioP1;P1;durP2;ratioP2;P2;SDS_P1;SDS_P2;PMS_P1;PMS_P2;Temp;Humidity;BMP_temperature;BMP_pressure;BME280_temperature;BME280_humidity;BME280_pressure;Samples;Min_cycle;Max_cycle;Signal;HPM_P1;HPM_P2
2022/10/21 00:02:03;;;;;;;;;;;;;;;-144.99;100.00;52268.72;5051870;28;19939;-72
2022/10/21 00:04:29;;;;;;;;;;;;;;;-144.99;100.00;52340.06;5054678;28;20024;-72
2022/10/21 00:06:56;;;;;;;;;;;;;;;-144.99;100.00;52366.56;5048359;28;19928;-72
2022/10/21 00:09:22;;;;;;;;;;;;;;;-144.99;100.00;52338.03;5056182;28;20075;-74
2022/10/21 00:11:48;;;;;;;;;;;;;;;-144.99;100.00;52313.56;5052679;28;20260;-73
2022/10/21 00:14:15;;;;;;;;;;;;;;;-144.99;100.00;52352.28;5057227;28;20048;-73
2022/10/21 00:16:41;;;;;;;;;;;;;;;-144.99;100.00;52342.09;5058827;28;19946;-72
2022/10/21 00:19:09;;;;;;;;;;;;;;;-144.99;100.00;52378.78;5052720;28;20073;-71
2022/10/21 00:21:36;;;;;;;;;;;;;;;-144.99;100.00;52321.72;5055073;28;19943;-72
2022/10/21 00:24:03;;;;;;;;;;;;;;;-144.99;100.00;52346.19;5052073;28;19945;-73
2022/10/21 00:26:29;;;;;;;;;;;;;;;-144.99;100.00;52382.88;5051295;28;20076;-73
2022/10/21 00:28:56;;;;;;;;;;;;;;;-144.99;100.00;52321.72;5051794;28;19959;-74
2022/10/21 00:31:22;;;;;;;;;;;;;;;-144.99;100.00;52358.41;5053069;28;19995;-73
2022/10/21 00:33:49;;;;;;;;;;;;;;;-144.99;100.00;52331.91;5053802;28;19953;-74
2022/10/21 00:36:17;;;;;;;;;;;;;;;-144.99;100.00;52313.56;5056029;28;19943;-73
2022/10/21 00:38:44;;;;;;;;;;;;;;;-144.99;100.00;52297.25;5053402;28;19961;-74
2022/10/21 00:41:10;;;;;;;;;;;;;;;-144.99;100.00;52309.50;5052834;28;19973;-75
2022/10/21 00:43:52;;;;;;;;;;;;;;;-144.99;100.00;52346.19;5066151;28;19928;-73
2022/10/21 00:46:18;;;;;;;;;;;;;;;-144.99;100.00;52374.72;5062861;28;19941;-75
2022/10/21 00:48:48;;;;;;;;;;;;;;;-144.99;100.00;52295.22;5067055;28;20428;-73
2022/10/21 00:51:17;;;;;;;;;;;;;;;-144.99;100.00;52329.88;5069157;28;19947;-73
2022/10/21 00:53:46;;;;;;;;;;;;;;;-144.99;100.00;52321.72;5066762;28;19993;-73
2022/10/21 00:56:16;;;;;;;;;;;;;;;-144.99;100.00;52333.94;5066916;28;19946;-74
2022/10/21 00:58:42;;;;;;;;;;;;;;;-144.99;100.00;52309.50;5070493;28;20448;-73
2022/10/21 01:01:09;;;;;;;;;;;;;;;-144.99;100.00;52360.44;5068440;28;20020;-74
2022/10/21 01:03:35;;;;;;;;;;;;;;;-144.99;100.00;52327.84;5069441;28;19951;-74
2022/10/21 01:06:04;;;;;;;;;;;;;;;-144.99;100.00;52333.94;5066646;28;20034;-73
2022/10/21 01:08:30;;;;;;;;;;;;;;;-144.99;100.00;52338.03;5048216;28;19972;-73
2022/10/21 01:10:59;;;;;;;;;;;;;;;-144.99;100.00;52342.09;5064304;28;19940;-72
2022/10/21 01:13:29;;;;;;;;;;;;;;;-144.99;100.00;52329.88;5069741;28;19939;-73
2022/10/21 01:16:00;;;;;;;;;;;;;;;-144.99;100.00;52333.94;5060513;28;19951;-74
2022/10/21 01:18:31;;;;;;;;;;;;;;;-144.99;100.00;52338.03;5057884;28;19931;-73
2022/10/21 01:21:12;;;;;;;;;;;;;;;-144.99;100.00;52315.59;5088538;22;20018;-76
2022/10/21 01:23:52;;;;;;;;;;;;;;;-144.99;100.00;52336.00;5089908;28;19991;-75
2022/10/21 01:26:35;;;;;;;;;;;;;;;-144.99;100.00;52346.19;5083618;28;20368;-76
2022/10/21 01:29:11;;;;;;;;;;;;;;;-144.99;100.00;52311.53;5092687;28;19946;-76
2022/10/21 01:31:42;;;;;;;;;;;;;;;-144.99;100.00;52370.63;5092567;28;20356;-76
2022/10/21 01:34:10;;;;;;;;;;;;;;;-144.99;100.00;52342.09;5074227;28;19939;-77
2022/10/21 01:36:41;;;;;;;;;;;;;;;-144.99;100.00;52374.72;5072026;28;20043;-77
2022/10/21 01:39:13;;;;;;;;;;;;;;;-144.99;100.00;52313.56;5080338;28;19983;-76
2022/10/21 01:41:42;;;;;;;;;;;;;;;-144.99;100.00;52354.34;5089139;28;19965;-77
2022/10/21 01:44:14;;;;;;;;;;;;;;;-144.99;100.00;52336.00;5074779;28;19944;-76
2022/10/21 01:46:43;;;;;;;;;;;;;;;-144.99;100.00;52346.19;5071965;28;19929;-77
2022/10/21 01:49:11;;;;;;;;;;;;;;;-144.99;100.00;52340.06;5069214;28;19940;-76
2022/10/21 01:51:37;;;;;;;;;;;;;;;-144.99;100.00;52360.44;5070480;28;19953;-78
2022/10/21 01:54:07;;;;;;;;;;;;;;;-144.99;100.00;52358.41;5065385;28;19946;-78
2022/10/21 01:56:33;;;;;;;;;;;;;;;-144.99;100.00;52329.88;5068105;28;19935;-78
2022/10/21 01:59:00;;;;;;;;;;;;;;;-144.99;100.00;52301.34;5068477;28;19961;-77
2022/10/21 02:01:27;;;;;;;;;;;;;;;-144.99;100.00;52333.94;5069445;28;19958;-78
2022/10/21 02:03:58;;;;;;;;;;;;;;;-144.99;100.00;52333.94;5068103;28;19943;-78
2022/10/21 02:06:25;;;;;;;;;;;;;;;-144.99;100.00;52329.88;5070674;28;19935;-78
2022/10/21 02:08:52;;;;;;;;;;;;;;;-144.99;100.00;52321.72;5070043;28;20390;-77
2022/10/21 02:11:18;;;;;;;;;;;;;;;-144.99;100.00;52293.19;5069431;28;20767;-77
2022/10/21 02:13:48;;;;;;;;;;;;;;;-144.99;100.00;52329.88;5070624;28;19940;-77
2022/10/21 02:16:16;;;;;;;;;;;;;;;-144.99;100.00;52346.19;5070562;28;19947;-77
2022/10/21 02:18:43;;;;;;;;;;;;;;;-144.99;100.00;52305.41;5070713;28;19946;-77
2022/10/21 02:21:14;;;;;;;;;;;;;;;-144.99;100.00;52317.66;5071335;28;19969;-78
2022/10/21 02:23:43;;;;;;;;;;;;;;;-144.99;100.00;52333.94;5070822;28;19939;-78
2022/10/21 02:26:10;;;;;;;;;;;;;;;-144.99;100.00;52325.81;5070375;28;20314;-79
2022/10/21 02:28:37;;;;;;;;;;;;;;;-144.99;100.00;52348.22;5070497;28;19974;-78
2022/10/21 02:31:08;;;;;;;;;;;;;;;-144.99;100.00;52315.59;5070000;28;19959;-78
2022/10/21 02:33:42;;;;;;;;;;;;;;;-144.99;100.00;52333.94;5067236;28;19959;-77
2022/10/21 02:36:12;;;;;;;;;;;;;;;-144.99;100.00;52358.41;5071109;28;19924;-77
2022/10/21 02:38:42;;;;;;;;;;;;;;;-144.99;100.00;52331.91;5071308;28;20375;-76
2022/10/21 02:41:10;;;;;;;;;;;;;;;-144.99;100.00;52325.81;5071317;28;19924;-76
2022/10/21 02:43:38;;;;;;;;;;;;;;;-144.99;100.00;52362.50;5070910;28;19944;-74
2022/10/21 02:46:06;;;;;;;;;;;;;;;-144.99;100.00;52309.50;5069382;28;19959;-74
2022/10/21 02:48:33;;;;;;;;;;;;;;;-144.99;100.00;52317.66;5076906;28;19963;-75
2022/10/21 02:50:59;;;;;;;;;;;;;;;-144.99;100.00;52313.56;5070378;28;20442;-75
2022/10/21 02:53:25;;;;;;;;;;;;;;;-144.99;100.00;52344.16;5069672;28;19946;-74
2022/10/21 02:55:53;;;;;;;;;;;;;;;-144.99;100.00;52319.69;5070926;28;19952;-75
2022/10/21 02:58:19;;;;;;;;;;;;;;;-144.99;100.00;52311.53;5070318;28;19939;-74
2022/10/21 03:00:46;;;;;;;;;;;;;;;-144.99;100.00;52331.91;5069287;28;20426;-78
2022/10/21 03:03:12;;;;;;;;;;;;;;;-144.99;100.00;52338.03;5068424;28;19940;-79
2022/10/21 03:05:38;;;;;;;;;;;;;;;-144.99;100.00;52321.72;5069251;28;20384;-77
2022/10/21 03:08:05;;;;;;;;;;;;;;;-144.99;100.00;52333.94;5069482;28;19940;-76
2022/10/21 03:10:31;;;;;;;;;;;;;;;-144.99;100.00;52352.28;5069163;28;19933;-76
2022/10/21 03:12:59;;;;;;;;;;;;;;;-144.99;100.00;52333.94;5069454;28;19946;-76
2022/10/21 03:15:25;;;;;;;;;;;;;;;-144.99;100.00;52348.22;5069412;28;19943;-76
2022/10/21 03:17:52;;;;;;;;;;;;;;;-144.99;100.00;52346.19;5069258;28;19960;-77
2022/10/21 03:20:18;;;;;;;;;;;;;;;-144.99;100.00;52333.94;5070068;28;19961;-77
2022/10/21 03:22:44;;;;;;;;;;;;;;;-144.99;100.00;52333.94;5070149;28;19955;-76
2022/10/21 03:25:11;;;;;;;;;;;;;;;-144.99;100.00;52301.34;5069788;28;19943;-76
2022/10/21 03:27:37;;;;;;;;;;;;;;;-144.99;100.00;52329.88;5069380;28;19940;-77
2022/10/21 03:30:06;;;;;;;;;;;;;;;-144.99;100.00;52297.25;5069336;28;19948;-77
2022/10/21 03:32:32;;;;;;;;;;;;;;;-144.99;100.00;52342.09;5068541;28;19972;-77
2022/10/21 03:34:59;;;;;;;;;;;;;;;-144.99;100.00;52321.72;5069400;28;20353;-77
2022/10/21 03:37:25;;;;;;;;;;;;;;;-144.99;100.00;52354.34;5072333;28;19958;-77
2022/10/21 03:39:51;;;;;;;;;;;;;;;-144.99;100.00;52321.72;5084474;28;19993;-78
2022/10/21 03:42:18;;;;;;;;;;;;;;;-144.99;100.00;52340.06;5075561;28;20443;-77
2022/10/21 03:44:44;;;;;;;;;;;;;;;-144.99;100.00;52313.56;5071441;28;19947;-76
2022/10/21 03:47:12;;;;;;;;;;;;;;;-144.99;100.00;52325.81;5070244;28;20322;-76
2022/10/21 03:49:38;;;;;;;;;;;;;;;-144.99;100.00;52309.50;5070511;28;19942;-75
2022/10/21 03:52:05;;;;;;;;;;;;;;;-144.99;100.00;52354.34;5069424;28;20023;-75
2022/10/21 03:54:31;;;;;;;;;;;;;;;-144.99;100.00;52336.00;5069951;28;20444;-75
2022/10/21 03:56:57;;;;;;;;;;;;;;;-144.99;100.00;52303.38;5069642;28;19924;-74
2022/10/21 03:59:24;;;;;;;;;;;;;;;-144.99;100.00;52366.56;5068463;28;19935;-75
2022/10/21 04:01:50;;;;;;;;;;;;;;;-144.99;100.00;52378.78;5067696;28;19954;-77
2022/10/21 04:04:18;;;;;;;;;;;;;;;-144.99;100.00;52340.06;5069140;28;19968;-76
2022/10/21 04:06:44;;;;;;;;;;;;;;;-144.99;100.00;52331.91;5068501;28;19945;-77
2022/10/21 04:09:10;;;;;;;;;;;;;;;-144.99;100.00;52325.81;5068431;28;19943;-77
2022/10/21 04:11:37;;;;;;;;;;;;;;;-144.99;100.00;52309.50;5068347;28;19984;-77
2022/10/21 04:14:03;;;;;;;;;;;;;;;-144.99;100.00;52346.19;5071471;28;19939;-77
2022/10/21 04:16:29;;;;;;;;;;;;;;;-144.99;100.00;52317.66;5078295;28;19935;-77
2022/10/21 04:18:56;;;;;;;;;;;;;;;-144.99;100.00;52358.41;5081693;28;19950;-78
2022/10/21 04:21:23;;;;;;;;;;;;;;;-144.99;100.00;52301.34;5072015;28;19961;-75
2022/10/21 04:23:50;;;;;;;;;;;;;;;-144.99;100.00;52358.41;5072337;28;19972;-77
2022/10/21 04:26:16;;;;;;;;;;;;;;;-144.99;100.00;52342.09;5073187;28;19966;-78
2022/10/21 04:28:42;;;;;;;;;;;;;;;-144.99;100.00;52340.06;5072955;28;19946;-77
2022/10/21 04:31:09;;;;;;;;;;;;;;;-144.99;100.00;52340.06;5073293;28;19969;-78
2022/10/21 04:33:35;;;;;;;;;;;;;;;-144.99;100.00;52321.72;5073657;28;19946;-77
2022/10/21 04:36:02;;;;;;;;;;;;;;;-144.99;100.00;52378.78;5073474;28;20380;-77
2022/10/21 04:38:29;;;;;;;;;;;;;;;-144.99;100.00;52338.03;5073531;28;19925;-77
2022/10/21 04:40:56;;;;;;;;;;;;;;;-144.99;100.00;52315.59;5073586;28;19958;-77
2022/10/21 04:43:23;;;;;;;;;;;;;;;-144.99;100.00;52384.91;5072852;28;19940;-78
2022/10/21 04:45:49;;;;;;;;;;;;;;;-144.99;100.00;52315.59;5073057;28;20363;-77
2022/10/21 04:48:15;;;;;;;;;;;;;;;-144.99;100.00;52305.41;5076791;28;19941;-75
2022/10/21 04:50:42;;;;;;;;;;;;;;;-144.99;100.00;52313.56;5077504;28;19963;-73
2022/10/21 04:53:08;;;;;;;;;;;;;;;-144.99;100.00;52346.19;5073894;28;19925;-74
2022/10/21 04:55:38;;;;;;;;;;;;;;;-144.99;100.00;52350.25;5066962;28;19959;-73
2022/10/21 04:58:04;;;;;;;;;;;;;;;-144.99;100.00;52376.75;5071209;28;19941;-71
2022/10/21 05:00:31;;;;;;;;;;;;;;;-144.99;100.00;52338.03;5073413;28;19954;-74
2022/10/21 05:02:58;;;;;;;;;;;;;;;-144.99;100.00;52342.09;5072471;28;20418;-76
2022/10/21 05:05:25;;;;;;;;;;;;;;;-144.99;100.00;52358.41;4372789;28;10000661;-77
2022/10/21 05:07:52;;;;;;;;;;;;;;;-144.99;100.00;52362.50;5067243;28;19943;-77
2022/10/21 05:10:18;;;;;;;;;;;;;;;-144.99;100.00;52329.88;5069026;28;19945;-78
2022/10/21 05:12:46;;;;;;;;;;;;;;;-144.99;100.00;52358.41;5067264;28;20449;-78
2022/10/21 05:15:13;;;;;;;;;;;;;;;-144.99;100.00;52370.63;5068626;28;19945;-79
2022/10/21 05:17:39;;;;;;;;;;;;;;;-144.99;100.00;52382.88;5069364;28;19957;-78
2022/10/21 05:20:06;;;;;;;;;;;;;;;-144.99;100.00;52354.34;5081296;28;19950;-79
2022/10/21 05:22:32;;;;;;;;;;;;;;;-144.99;100.00;52374.72;5088827;28;19969;-78
2022/10/21 05:24:59;;;;;;;;;;;;;;;-144.99;100.00;52358.41;5089019;28;19940;-79
2022/10/21 05:27:25;;;;;;;;;;;;;;;-144.99;100.00;52364.53;5090509;28;19942;-78
2022/10/21 05:29:53;;;;;;;;;;;;;;;-144.99;100.00;52346.19;5095209;28;19944;-78
2022/10/21 05:32:19;;;;;;;;;;;;;;;-144.99;100.00;52386.94;5081482;28;19928;-79
2022/10/21 05:34:46;;;;;;;;;;;;;;;-144.99;100.00;52370.63;5068624;28;19950;-78
2022/10/21 05:37:12;;;;;;;;;;;;;;;-144.99;100.00;52366.56;5071436;28;19942;-78
2022/10/21 05:39:38;;;;;;;;;;;;;;;-144.99;100.00;52384.91;5069209;28;20001;-79
2022/10/21 05:42:05;;;;;;;;;;;;;;;-144.99;100.00;52356.38;5070803;28;19964;-77
2022/10/21 05:44:31;;;;;;;;;;;;;;;-144.99;100.00;52358.41;5072943;28;19952;-78
2022/10/21 05:46:59;;;;;;;;;;;;;;;-144.99;100.00;52329.88;5076781;28;20056;-77
2022/10/21 05:49:25;;;;;;;;;;;;;;;-144.99;100.00;52372.69;5068807;28;20626;-78
2022/10/21 05:51:51;;;;;;;;;;;;;;;-144.99;100.00;52333.94;5067754;28;20061;-76
2022/10/21 05:54:18;;;;;;;;;;;;;;;-144.99;100.00;52370.63;5068913;28;20425;-78
2022/10/21 05:56:44;;;;;;;;;;;;;;;-144.99;100.00;52382.88;5068724;28;19949;-78
2022/10/21 05:59:10;;;;;;;;;;;;;;;-144.99;100.00;52378.78;5068880;28;19961;-78
2022/10/21 06:01:38;;;;;;;;;;;;;;;-144.99;100.00;52350.25;5067903;28;19924;-78
2022/10/21 06:04:06;;;;;;;;;;;;;;;-144.99;100.00;52338.03;5067712;28;19986;-78
2022/10/21 06:06:32;;;;;;;;;;;;;;;-144.99;100.00;52368.59;5063688;28;19941;-78
2022/10/21 06:08:59;;;;;;;;;;;;;;;-144.99;100.00;52342.09;5068210;28;19928;-78
2022/10/21 06:11:25;;;;;;;;;;;;;;;-144.99;100.00;52325.81;5068877;28;20395;-78
2022/10/21 06:13:52;;;;;;;;;;;;;;;-144.99;100.00;52386.94;5069539;28;19936;-78
2022/10/21 06:16:18;;;;;;;;;;;;;;;-144.99;100.00;52354.34;5068980;28;20315;-77
2022/10/21 06:18:44;;;;;;;;;;;;;;;-144.99;100.00;52366.56;5067105;28;20361;-77
2022/10/21 06:21:12;;;;;;;;;;;;;;;-144.99;100.00;52370.63;5066858;28;19935;-77
2022/10/21 06:23:39;;;;;;;;;;;;;;;-144.99;100.00;52354.34;5085784;28;19939;-78
2022/10/21 06:26:06;;;;;;;;;;;;;;;-144.99;100.00;52342.09;5097111;28;19943;-78
2022/10/21 06:28:33;;;;;;;;;;;;;;;-144.99;100.00;52354.34;5068300;28;19938;-79
2022/10/21 06:30:59;;;;;;;;;;;;;;;-144.99;100.00;52338.03;5069245;28;19928;-79
2022/10/21 06:33:26;;;;;;;;;;;;;;;-144.99;100.00;52374.72;5066361;28;19940;-78
2022/10/21 06:35:52;;;;;;;;;;;;;;;-144.99;100.00;52303.38;5067224;28;20395;-78
2022/10/21 06:38:20;;;;;;;;;;;;;;;-144.99;100.00;52350.25;5063493;28;19959;-78
2022/10/21 06:40:47;;;;;;;;;;;;;;;-144.99;100.00;52325.81;5065521;28;20330;-78
2022/10/21 06:43:14;;;;;;;;;;;;;;;-144.99;100.00;52346.19;5067032;28;19970;-78
2022/10/21 06:45:40;;;;;;;;;;;;;;;-144.99;100.00;52342.09;5064959;28;19948;-76
2022/10/21 06:48:07;;;;;;;;;;;;;;;-144.99;100.00;52397.13;5065513;28;19962;-78
2022/10/21 06:50:33;;;;;;;;;;;;;;;-144.99;100.00;52368.59;4711635;28;9999719;-78
2022/10/21 06:52:59;;;;;;;;;;;;;;;-144.99;100.00;52342.09;5066662;28;20541;-77
2022/10/21 06:55:27;;;;;;;;;;;;;;;-144.99;100.00;52342.09;5067067;28;19941;-77
2022/10/21 06:57:54;;;;;;;;;;;;;;;-144.99;100.00;52338.03;5067973;28;19924;-78
2022/10/21 07:00:20;;;;;;;;;;;;;;;-144.99;100.00;52354.34;5071571;28;20021;-80
2022/10/21 07:02:46;;;;;;;;;;;;;;;-144.99;100.00;52325.81;5066736;28;19969;-80
2022/10/21 07:05:13;;;;;;;;;;;;;;;-144.99;100.00;52366.56;5074208;28;19939;-79
2022/10/21 07:07:39;;;;;;;;;;;;;;;-144.99;100.00;52350.25;5067248;28;19955;-78
2022/10/21 07:10:06;;;;;;;;;;;;;;;-144.99;100.00;52346.19;5068195;28;20307;-78
2022/10/21 07:12:33;;;;;;;;;;;;;;;-144.99;100.00;52309.50;5066948;28;20582;-78
2022/10/21 07:15:00;;;;;;;;;;;;;;;-144.99;100.00;52333.94;5067243;28;19944;-78
2022/10/21 07:17:28;;;;;;;;;;;;;;;-144.99;100.00;52342.09;5067037;28;19938;-79
2022/10/21 07:19:54;;;;;;;;;;;;;;;-144.99;100.00;52333.94;5068350;28;19954;-80
2022/10/21 07:22:21;;;;;;;;;;;;;;;-144.99;100.00;52321.72;5068805;28;19962;-80
2022/10/21 07:24:47;;;;;;;;;;;;;;;-144.99;100.00;52366.56;5069353;28;19929;-77
2022/10/21 07:27:13;;;;;;;;;;;;;;;-144.99;100.00;52333.94;5069086;28;20487;-77
2022/10/21 07:29:41;;;;;;;;;;;;;;;-144.99;100.00;52358.41;5068134;28;19931;-78
2022/10/21 07:32:08;;;;;;;;;;;;;;;-144.99;100.00;52305.41;5068272;28;19934;-78
2022/10/21 07:34:34;;;;;;;;;;;;;;;-144.99;100.00;52305.41;5074577;28;19953;-82
2022/10/21 07:37:01;;;;;;;;;;;;;;;-144.99;100.00;52315.59;5072736;28;19950;-83
2022/10/21 07:39:27;;;;;;;;;;;;;;;-144.99;100.00;52321.72;5072750;28;20042;-83
2022/10/21 07:41:54;;;;;;;;;;;;;;;-144.99;100.00;52333.94;5064244;28;20054;-81
2022/10/21 07:44:22;;;;;;;;;;;;;;;-144.99;100.00;52338.03;5079941;28;19962;-82
2022/10/21 07:46:50;;;;;;;;;;;;;;;-144.99;100.00;52317.66;5069930;28;19947;-80
2022/10/21 07:49:18;;;;;;;;;;;;;;;-144.99;100.00;52340.06;5072188;28;19948;-80
2022/10/21 07:51:45;;;;;;;;;;;;;;;-144.99;100.00;52329.88;5069087;28;19975;-80
2022/10/21 07:54:11;;;;;;;;;;;;;;;-144.99;100.00;52395.09;5069290;28;19941;-80
2022/10/21 07:56:39;;;;;;;;;;;;;;;-144.99;100.00;52305.41;5069057;28;19939;-81
2022/10/21 07:59:05;;;;;;;;;;;;;;;-144.99;100.00;52327.84;5081307;28;19969;-82
2022/10/21 08:01:32;;;;;;;;;;;;;;;-144.99;100.00;52333.94;5072501;28;19924;-80
2022/10/21 08:04:00;;;;;;;;;;;;;;;-144.99;100.00;52354.34;5067659;28;20463;-79
2022/10/21 08:06:27;;;;;;;;;;;;;;;-144.99;100.00;52348.22;5068176;28;20287;-80
2022/10/21 08:08:56;;;;;;;;;;;;;;;-144.99;100.00;52313.56;5069943;28;20018;-80
2022/10/21 08:11:23;;;;;;;;;;;;;;;-144.99;100.00;52311.53;5068292;28;19964;-79
2022/10/21 08:13:49;;;;;;;;;;;;;;;-144.99;100.00;52315.59;5067832;28;19940;-81
2022/10/21 08:16:15;;;;;;;;;;;;;;;-144.99;100.00;52323.75;5066896;28;20421;-79
2022/10/21 08:18:42;;;;;;;;;;;;;;;-144.99;100.00;52305.41;5072371;28;20030;-81
2022/10/21 08:21:10;;;;;;;;;;;;;;;-144.99;100.00;52293.19;5067514;28;20043;-79
2022/10/21 08:23:36;;;;;;;;;;;;;;;-144.99;100.00;52325.81;5066144;28;19926;-78
2022/10/21 08:26:03;;;;;;;;;;;;;;;-144.99;100.00;52291.16;5065142;28;20303;-80
2022/10/21 08:28:30;;;;;;;;;;;;;;;-144.99;100.00;52319.69;5076603;28;19943;-78
2022/10/21 08:31:02;;;;;;;;;;;;;;;-144.99;100.00;52309.50;5076562;28;20405;-83
2022/10/21 08:33:29;;;;;;;;;;;;;;;-144.99;100.00;52303.38;5075847;28;20414;-79
2022/10/21 08:35:55;;;;;;;;;;;;;;;-144.99;100.00;52333.94;5072414;28;19941;-81
2022/10/21 08:38:23;;;;;;;;;;;;;;;-144.99;100.00;52266.69;5076182;28;20036;-80
2022/10/21 08:40:49;;;;;;;;;;;;;;;-144.99;100.00;52342.09;5072706;28;19959;-81
2022/10/21 08:43:19;;;;;;;;;;;;;;;-144.99;100.00;52338.03;5076572;28;19960;-83
2022/10/21 08:45:49;;;;;;;;;;;;;;;-144.99;100.00;52333.94;5075781;28;20033;-82
2022/10/21 08:48:19;;;;;;;;;;;;;;;-144.99;100.00;52317.66;5073974;28;19942;-81
2022/10/21 08:50:48;;;;;;;;;;;;;;;-144.99;100.00;52317.66;5073021;28;20096;-82
2022/10/21 08:53:17;;;;;;;;;;;;;;;-144.99;100.00;52342.09;5071312;28;20013;-81
2022/10/21 08:55:45;;;;;;;;;;;;;;;-144.99;100.00;52333.94;5084694;28;19950;-80
2022/10/21 08:58:13;;;;;;;;;;;;;;;-144.99;100.00;52358.41;5070159;28;19947;-81
2022/10/21 09:00:44;;;;;;;;;;;;;;;-144.99;100.00;52309.50;5070597;28;19965;-81
2022/10/21 09:03:15;;;;;;;;;;;;;;;-144.99;100.00;52317.66;5069303;28;19954;-80
2022/10/21 09:05:59;;;;;;;;;;;;;;;-144.99;100.00;52338.03;5070239;28;19988;-80
2022/10/21 09:08:31;;;;;;;;;;;;;;;-144.99;100.00;52293.19;5059972;28;19943;-81
2022/10/21 09:11:04;;;;;;;;;;;;;;;-144.99;100.00;52293.19;5074495;28;19988;-82
2022/10/21 09:13:39;;;;;;;;;;;;;;;-144.99;100.00;52283.00;5089228;28;19928;-83
2022/10/21 09:16:11;;;;;;;;;;;;;;;-144.99;100.00;52264.66;5071496;28;20328;-81
2022/10/21 09:18:44;;;;;;;;;;;;;;;-144.99;100.00;52256.50;5082423;28;19937;-80
2022/10/21 09:21:14;;;;;;;;;;;;;;;-144.99;100.00;52223.88;5072784;28;19928;-81
2022/10/21 09:23:46;;;;;;;;;;;;;;;-144.99;100.00;52215.75;5075601;28;19997;-82
2022/10/21 09:26:20;;;;;;;;;;;;;;;-144.99;89.92;52207.59;5081166;28;20336;-81
2022/10/21 09:28:48;;;;;;;;;;;;;;;-144.99;85.94;52219.81;5077819;28;19942;-81
2022/10/21 09:31:17;;;;;;;;;;;;;;;-144.99;81.32;52170.91;5073788;28;20331;-81
2022/10/21 09:33:45;;;;;;;;;;;;;;;-144.99;74.75;52166.81;5083541;28;19941;-80
2022/10/21 09:36:13;;;;;;;;;;;;;;;-144.99;71.94;52187.19;5069251;28;19940;-81
2022/10/21 09:38:43;;;;;;;;;;;;;;;-144.99;69.29;52195.34;5075959;28;19928;-80
2022/10/21 09:41:13;;;;;;;;;;;;;;;-144.99;68.11;52179.06;5085075;28;19974;-81
2022/10/21 09:43:43;;;;;;;;;;;;;;;-144.99;67.32;52183.13;5078563;28;19963;-82
2022/10/21 09:46:10;;;;;;;;;;;;;;;-144.99;65.21;52162.75;5088174;28;20014;-81
2022/10/21 09:48:40;;;;;;;;;;;;;;;-144.99;62.51;52185.16;5079687;28;19935;-81
2022/10/21 09:51:10;;;;;;;;;;;;;;;-144.99;60.79;52138.28;5073520;28;20430;-80
2022/10/21 09:53:38;;;;;;;;;;;;;;;-144.99;58.04;52134.22;5080424;28;19944;-82
2022/10/21 09:56:06;;;;;;;;;;;;;;;-144.99;56.30;52150.53;5074488;28;20418;-79
2022/10/21 09:58:45;;;;;;;;;;;;;;;-144.99;53.29;52124.03;5071798;28;19946;-81
2022/10/21 10:01:15;;;;;;;;;;;;;;;-144.99;51.59;52105.69;5075866;28;19961;-82
2022/10/21 10:03:44;;;;;;;;;;;;;;;-144.99;50.04;52105.69;5073299;28;19997;-81
2022/10/21 10:06:11;;;;;;;;;;;;;;;-144.99;49.48;52046.56;5073472;28;19950;-82
2022/10/21 10:08:39;;;;;;;;;;;;;;;-144.99;48.58;52060.84;5088698;28;19960;-82
2022/10/21 10:11:16;;;;;;;;;;;;;;;-144.99;47.15;52056.78;5096039;28;20134;-85
2022/10/21 10:13:45;;;;;;;;;;;;;;;-144.99;45.64;52056.78;5091523;28;19924;-84
2022/10/21 10:16:21;;;;;;;;;;;;;;;-144.99;46.52;52097.53;5092261;28;20133;-84
2022/10/21 10:18:47;;;;;;;;;;;;;;;-144.99;46.81;52146.44;5086309;28;20008;-82
2022/10/21 10:21:14;;;;;;;;;;;;;;;-144.99;48.12;52181.09;5070116;28;19928;-82
2022/10/21 10:23:45;;;;;;;;;;;;;;;-144.99;50.43;52219.81;5072830;28;19956;-80
2022/10/21 10:26:16;;;;;;;;;;;;;;;-144.99;53.04;52187.19;5070549;28;19931;-80
2022/10/21 10:28:48;;;;;;;;;;;;;;;-144.99;54.48;52158.66;5076252;28;19931;-80
2022/10/21 10:31:22;;;;;;;;;;;;;;;-144.99;55.17;52117.91;5073371;28;19966;-80
2022/10/21 10:33:51;;;;;;;;;;;;;;;-144.99;53.57;52130.13;5067540;28;19994;-81
2022/10/21 10:36:25;;;;;;;;;;;;;;;-144.99;50.74;52089.38;5075619;28;19924;-81
2022/10/21 10:38:53;;;;;;;;;;;;;;;-144.99;48.96;52109.75;5076830;28;20071;-79
2022/10/21 10:41:19;;;;;;;;;;;;;;;-144.99;48.17;52036.38;5072348;28;20060;-81
2022/10/21 10:43:47;;;;;;;;;;;;;;;-144.99;47.25;52018.03;5071008;28;20388;-82
2022/10/21 10:46:23;;;;;;;;;;;;;;;-144.99;45.14;51971.16;5070980;28;20320;-84
2022/10/21 10:48:51;;;;;;;;;;;;;;;-144.99;43.61;51969.13;5071201;28;19949;-82
2022/10/21 10:51:23;;;;;;;;;;;;;;;-144.99;42.76;51930.41;5071852;28;19954;-81
2022/10/21 10:53:59;;;;;;;;;;;;;;;-144.99;42.15;52003.78;5071198;28;19965;-82
2022/10/21 10:56:28;;;;;;;;;;;;;;;-144.99;41.32;51950.78;5067817;28;20452;-81
2022/10/21 10:58:59;;;;;;;;;;;;;;;-144.99;40.75;51938.56;5070146;28;20023;-80
2022/10/21 11:01:31;;;;;;;;;;;;;;;-144.99;40.80;51991.56;5061464;28;19962;-82
2022/10/21 11:04:00;;;;;;;;;;;;;;;-144.99;40.54;51942.63;5074761;28;19955;-82
2022/10/21 11:06:32;;;;;;;;;;;;;;;-144.99;40.73;51977.28;5079398;28;19994;-83
2022/10/21 11:09:01;;;;;;;;;;;;;;;-144.99;39.73;51952.81;5070075;28;19971;-83
2022/10/21 11:11:29;;;;;;;;;;;;;;;-144.99;38.92;51967.09;5061209;28;20019;-79
2022/10/21 11:13:56;;;;;;;;;;;;;;;-144.99;38.77;51973.22;5069182;28;19929;-79
2022/10/21 11:16:27;;;;;;;;;;;;;;;-144.99;38.63;51950.78;5069539;28;20089;-81
2022/10/21 11:18:59;;;;;;;;;;;;;;;-144.99;38.51;51983.41;5070845;28;19930;-81
2022/10/21 11:21:43;;;;;;;;;;;;;;;-144.99;38.86;51997.66;5072304;28;20033;-80
2022/10/21 11:24:16;;;;;;;;;;;;;;;-144.99;39.90;51995.63;5066821;28;19924;-80
2022/10/21 11:26:49;;;;;;;;;;;;;;;-144.99;39.99;52030.28;5069703;28;19957;-80
2022/10/21 11:29:25;;;;;;;;;;;;;;;-144.99;40.48;52093.44;5071387;28;20030;-81
2022/10/21 11:31:57;;;;;;;;;;;;;;;-144.99;40.58;52073.06;5069900;28;19969;-79
2022/10/21 11:34:30;;;;;;;;;;;;;;;-144.99;40.53;52077.16;5068811;28;19925;-80
2022/10/21 11:37:02;;;;;;;;;;;;;;;-144.99;41.00;52056.78;5068942;28;19985;-80
2022/10/21 11:39:43;;;;;;;;;;;;;;;-144.99;41.25;52048.63;5071937;28;20034;-84
2022/10/21 11:42:15;;;;;;;;;;;;;;;-144.99;40.36;51954.88;5067160;28;19931;-81
2022/10/21 11:44:55;;;;;;;;;;;;;;;-144.99;39.60;51995.63;5068104;28;19968;-80
2022/10/21 11:47:28;;;;;;;;;;;;;;;-144.99;39.58;51946.72;5068645;28;19961;-79
2022/10/21 11:50:03;;;;;;;;;;;;;;;-144.99;38.81;52003.78;5067572;28;19935;-83
2022/10/21 11:52:35;;;;;;;;;;;;;;;-144.99;38.57;51975.25;5062494;28;20429;-81
2022/10/21 11:55:14;;;;;;;;;;;;;;;-144.99;40.03;52040.47;5065753;28;19965;-81
2022/10/21 11:57:48;;;;;;;;;;;;;;;-144.99;40.17;52003.78;5069186;28;19947;-81
2022/10/21 12:00:17;;;;;;;;;;;;;;;-144.99;39.37;52036.38;5069249;28;19945;-81
2022/10/21 12:02:44;;;;;;;;;;;;;;;-144.99;39.46;51993.59;5089275;28;19925;-83
2022/10/21 12:05:26;;;;;;;;;;;;;;;-144.99;38.60;51950.78;5079427;28;19931;-81
2022/10/21 12:08:06;;;;;;;;;;;;;;;-144.99;38.17;51960.97;5081139;28;19928;-84
2022/10/21 12:10:36;;;;;;;;;;;;;;;-144.99;38.28;51912.06;5083428;28;20099;-84
2022/10/21 12:13:04;;;;;;;;;;;;;;;-144.99;37.69;51946.72;5083958;28;19992;-80
2022/10/21 12:15:34;;;;;;;;;;;;;;;-144.99;37.03;51936.53;5082403;28;20023;-81
2022/10/21 12:18:03;;;;;;;;;;;;;;;-144.99;37.01;51936.53;5071812;28;19928;-80
2022/10/21 12:20:30;;;;;;;;;;;;;;;-144.99;37.32;51975.25;5084749;28;20376;-81
2022/10/21 12:22:59;;;;;;;;;;;;;;;-144.99;37.58;51975.25;5071775;28;20329;-81
2022/10/21 12:25:30;;;;;;;;;;;;;;;-144.99;37.90;51999.69;5072287;28;19928;-81
2022/10/21 12:27:59;;;;;;;;;;;;;;;-144.99;37.92;51971.16;5070951;28;20044;-80